This is the latest recevied weather packets stored in our database for station/object WA5KWK. If no packets are shown the sender has not sent any weather packets the latest 10 day(s).
| Time | Temp. | Humidity | Pressure | Rain* | Wind** | Luminosity | Snow |
|---|---|---|---|---|---|---|---|
| 1777504805 | 20.56° C | 50% | 1016.2 hPa | 0 mm | - | 664 W/m² | - |
| 1777500904 | 20° C | 50% | 1016.7 hPa | 0 mm | - | 840 W/m² | - |
| 1777500304 | 20° C | 50% | 1016.9 hPa | 0 mm | - | 861 W/m² | - |
| 1777497904 | 19.44° C | 52% | 1017 hPa | 0 mm | - | 933 W/m² | - |
| 1777492505 | 17.78° C | 64% | 1017.3 hPa | 0 mm | - | 990 W/m² | - |
| 1777490104 | 17.78° C | 63% | 1017.7 hPa | 0 mm | - | 969 W/m² | - |
| 1777489504 | 17.78° C | 61% | 1017.8 hPa | 0 mm | - | 956 W/m² | - |
| 1777487404 | 18.33° C | 56% | 1017.6 hPa | 0 mm | - | 907 W/m² | - |
| 1777486804 | 18.33° C | 54% | 1017.6 hPa | 0 mm | - | 893 W/m² | - |
| 1777486204 | 18.33° C | 52% | 1017.7 hPa | 0 mm | - | 875 W/m² | - |
| 1777485904 | 18.33° C | 53% | 1017.6 hPa | 0 mm | - | 863 W/m² | - |
| 1777480205 | 16.11° C | 54% | 1017.8 hPa | 0 mm | - | 603 W/m² | - |
| 1777477204 | 14.44° C | 64% | 1017.7 hPa | 0 mm | - | 195 W/m² | - |
| 1777476904 | 14.44° C | 65% | 1017.7 hPa | 0 mm | - | 69 W/m² | - |
| 1777475104 | 12.22° C | 65% | 1017.8 hPa | 0 mm | - | 246 W/m² | - |
| 1777470604 | 8.33° C | 72% | 1017.8 hPa | 0 mm | - | 18 W/m² | - |
| 1777467904 | 8.33° C | 71% | 1017.8 hPa | 0 mm | - | 0 W/m² | - |
| 1777465803 | 7.78° C | 73% | 1017.9 hPa | 0 mm | - | 0 W/m² | - |
| 1777464904 | 7.22° C | 76% | 1018 hPa | 0 mm | - | 0 W/m² | - |
| 1777463404 | 7.78° C | 76% | 1018.1 hPa | 0 mm | - | 0 W/m² | - |
| 1777462504 | 7.78° C | 74% | 1018.1 hPa | 0 mm | - | 0 W/m² | - |
| 1777458903 | 9.44° C | 71% | 1018.1 hPa | 0 mm | - | 0 W/m² | - |
| 1777458304 | 9.44° C | 71% | 1018.1 hPa | 0 mm | - | 0 W/m² | - |
| 1777455303 | 10° C | 72% | 1018.2 hPa | 0 mm | - | 0 W/m² | - |
| 1777454703 | 10° C | 70% | 1018.2 hPa | 0 mm | - | 0 W/m² | - |
* Rain latest hour (hover to see other rain measurements)
** Current wind speed in m/s (hover to see current wind gust speed)